createdAt,value
2019-02-02T00:02:28.365Z,24.63
2019-02-02T00:05:00.378Z,30.27
2019-02-02T00:07:33.376Z,31.83
2019-02-02T00:10:06.426Z,30.00
2019-02-02T00:12:37.812Z,29.73
2019-02-02T00:15:09.902Z,33.60
2019-02-02T00:17:41.979Z,35.00
2019-02-02T00:20:13.877Z,35.63
2019-02-02T00:22:45.402Z,31.65
2019-02-02T00:25:17.034Z,25.62
2019-02-02T00:27:49.974Z,25.43
2019-02-02T00:30:21.825Z,27.10
2019-02-02T00:32:53.175Z,21.50
2019-02-02T00:35:24.841Z,14.03
2019-02-02T00:37:55.955Z,15.63
2019-02-02T00:40:27.323Z,13.43
2019-02-02T00:43:01.524Z,12.57
2019-02-02T00:45:34.134Z,10.80
2019-02-02T00:48:06.316Z,11.38
2019-02-02T00:50:37.487Z,10.20
2019-02-02T00:53:08.692Z,9.93
2019-02-02T00:55:39.871Z,10.13
2019-02-02T00:58:11.067Z,11.60
2019-02-02T01:00:43.903Z,11.13
2019-02-02T01:03:15.410Z,10.28
2019-02-02T01:05:46.712Z,12.33
2019-02-02T01:08:17.932Z,15.17
2019-02-02T01:10:49.394Z,23.83
2019-02-02T01:13:20.612Z,17.07
2019-02-02T01:15:53.558Z,18.97
2019-02-02T01:18:24.761Z,21.90
2019-02-02T01:20:55.995Z,20.80
2019-02-02T01:23:27.484Z,20.83
2019-02-02T01:25:58.548Z,19.03
2019-02-02T01:28:29.732Z,12.53
2019-02-02T01:31:01.116Z,14.77
2019-02-02T01:33:32.166Z,20.37
2019-02-02T01:36:04.739Z,21.97
2019-02-02T01:38:36.231Z,17.77
2019-02-02T01:41:07.675Z,18.80
2019-02-02T01:43:38.934Z,20.87
2019-02-02T01:46:10.061Z,25.80
2019-02-02T01:48:41.188Z,25.10
2019-02-02T01:51:12.218Z,21.50
2019-02-02T01:53:43.241Z,25.17
2019-02-02T01:56:14.559Z,23.70
2019-02-02T01:58:47.279Z,23.23
2019-02-02T02:01:18.918Z,22.37
2019-02-02T02:03:50.622Z,28.20
2019-02-02T02:06:22.422Z,30.07
2019-02-02T02:08:55.134Z,19.87
2019-02-02T02:11:26.369Z,16.87
2019-02-02T02:13:57.601Z,10.60
2019-02-02T02:16:28.799Z,8.47
2019-02-02T02:19:00.497Z,7.83
2019-02-02T02:21:33.411Z,8.00
2019-02-02T02:24:05.380Z,7.97
2019-02-02T02:26:36.574Z,7.97
2019-02-02T02:29:07.764Z,7.58
2019-02-02T02:31:39.049Z,7.87
2019-02-02T02:34:12.489Z,10.03
2019-02-02T02:36:44.853Z,13.60
2019-02-02T02:39:16.665Z,14.40
2019-02-02T02:41:49.943Z,20.77
2019-02-02T02:44:21.680Z,17.33
2019-02-02T02:46:52.852Z,18.17
2019-02-02T02:49:24.146Z,20.68
2019-02-02T02:51:55.493Z,22.40
2019-02-02T02:54:28.146Z,26.83
2019-02-02T02:56:59.412Z,28.93
2019-02-02T02:59:31.986Z,31.27
2019-02-02T03:02:03.670Z,37.67
2019-02-02T03:04:36.640Z,36.53
2019-02-02T03:07:07.738Z,39.43
2019-02-02T03:09:38.795Z,38.25
2019-02-02T03:12:11.247Z,37.53
2019-02-02T03:14:42.501Z,32.70
2019-02-02T03:17:13.873Z,35.13
2019-02-02T03:19:45.150Z,30.90
2019-02-02T03:22:16.188Z,33.17
2019-02-02T03:24:47.654Z,34.40
2019-02-02T03:27:19.013Z,29.30
2019-02-02T03:29:50.943Z,20.33
2019-02-02T03:32:22.227Z,9.83
2019-02-02T03:34:53.629Z,9.10
2019-02-02T03:37:24.769Z,7.53
2019-02-02T03:39:56.158Z,6.70
2019-02-02T03:42:28.625Z,5.73
2019-02-02T03:45:00.000Z,6.00
2019-02-02T03:47:33.532Z,5.30
2019-02-02T03:50:07.013Z,5.13
2019-02-02T03:52:40.246Z,6.20
2019-02-02T03:55:12.725Z,5.83
2019-02-02T03:57:44.009Z,6.30
2019-02-02T04:00:21.166Z,6.00
2019-02-02T04:02:52.574Z,6.57
2019-02-02T04:05:26.183Z,6.65
2019-02-02T04:07:57.934Z,6.67
2019-02-02T04:10:29.518Z,7.47
2019-02-02T04:13:01.927Z,7.12
2019-02-02T04:15:33.781Z,7.53
2019-02-02T04:18:06.039Z,7.03
2019-02-02T04:20:37.450Z,8.00
2019-02-02T04:23:08.764Z,8.20
2019-02-02T04:25:40.259Z,7.97
2019-02-02T04:28:11.572Z,7.20
2019-02-02T04:30:42.969Z,6.40
2019-02-02T04:33:14.065Z,8.90
2019-02-02T04:35:45.202Z,8.83
2019-02-02T04:38:16.487Z,10.23
2019-02-02T04:40:47.782Z,11.30
2019-02-02T04:43:20.390Z,10.87
2019-02-02T04:45:52.059Z,11.73
2019-02-02T04:48:23.498Z,12.82
2019-02-02T04:50:54.715Z,13.03
2019-02-02T04:53:27.285Z,14.10
2019-02-02T04:55:58.363Z,16.40
2019-02-02T04:58:29.457Z,18.30
2019-02-02T05:01:02.213Z,16.33
2019-02-02T05:03:33.339Z,17.03
2019-02-02T05:06:04.687Z,16.10
2019-02-02T05:08:35.951Z,12.33
2019-02-02T05:11:07.140Z,8.93
2019-02-02T05:13:38.559Z,8.75
2019-02-02T05:16:10.769Z,9.43
2019-02-02T05:18:41.835Z,9.03
2019-02-02T05:21:13.056Z,8.63
2019-02-02T05:23:44.677Z,8.57
2019-02-02T05:26:16.246Z,9.03
2019-02-02T05:28:47.800Z,10.10
2019-02-02T05:31:19.260Z,11.75
2019-02-02T05:33:53.631Z,10.73
2019-02-02T05:36:24.809Z,10.40
2019-02-02T05:38:56.070Z,10.63
2019-02-02T05:41:27.236Z,12.20
2019-02-02T05:43:58.460Z,10.93
2019-02-02T05:46:29.734Z,11.70
2019-02-02T05:49:01.790Z,12.77
2019-02-02T05:51:33.229Z,19.17
2019-02-02T05:54:04.976Z,21.17
2019-02-02T05:56:36.427Z,26.70
2019-02-02T05:59:07.611Z,27.80
2019-02-02T06:01:40.763Z,30.03
2019-02-02T06:04:11.854Z,29.07
2019-02-02T06:06:43.031Z,26.57
2019-02-02T06:09:14.206Z,24.92
2019-02-02T06:11:47.204Z,25.83
2019-02-02T06:14:19.466Z,19.77
2019-02-02T06:16:50.845Z,18.90
2019-02-02T06:19:22.157Z,16.00
2019-02-02T06:21:58.918Z,14.17
2019-02-02T06:24:30.198Z,17.23
2019-02-02T06:27:03.249Z,16.13
2019-02-02T06:29:34.452Z,16.27
2019-02-02T06:32:11.982Z,16.02
2019-02-02T06:34:40.249Z,16.17
2019-02-02T06:37:11.345Z,10.60
2019-02-02T06:39:42.497Z,9.03
2019-02-02T06:42:14.005Z,8.23
2019-02-02T06:44:45.147Z,9.13
2019-02-02T06:47:16.612Z,11.60
2019-02-02T06:49:47.864Z,13.03
2019-02-02T06:52:19.861Z,10.87
2019-02-02T06:54:50.862Z,13.53
2019-02-02T06:57:22.380Z,17.00
2019-02-02T06:59:54.409Z,15.47
2019-02-02T07:02:26.290Z,14.90
2019-02-02T07:04:57.316Z,12.20
2019-02-02T07:07:28.495Z,11.43
2019-02-02T07:09:59.518Z,5.83
2019-02-02T07:12:30.581Z,4.80
2019-02-02T07:15:01.923Z,6.15
2019-02-02T07:17:34.092Z,6.53
2019-02-02T07:20:06.745Z,9.05
2019-02-02T07:22:37.974Z,8.63
2019-02-02T07:25:10.584Z,7.07
2019-02-02T07:27:42.366Z,6.33
2019-02-02T07:30:28.327Z,8.07
2019-02-02T07:32:51.218Z,6.37
2019-02-02T07:35:22.650Z,4.50
2019-02-02T07:37:53.683Z,4.07
2019-02-02T07:40:24.885Z,4.03
2019-02-02T07:42:56.082Z,4.10
2019-02-02T07:45:29.414Z,4.50
2019-02-02T07:48:00.522Z,4.40
2019-02-02T07:50:31.580Z,3.90
2019-02-02T07:53:02.775Z,4.30
2019-02-02T07:55:33.793Z,4.33
2019-02-02T07:58:05.848Z,4.50
2019-02-02T08:00:41.360Z,4.30
2019-02-02T08:03:14.828Z,4.80
2019-02-02T08:05:45.882Z,4.17
2019-02-02T08:08:17.231Z,4.93
2019-02-02T08:10:48.285Z,6.37
2019-02-02T08:13:19.643Z,4.93
2019-02-02T08:15:51.010Z,5.10
2019-02-02T08:18:22.296Z,4.87
2019-02-02T08:20:53.256Z,5.03
2019-02-02T08:23:24.280Z,5.00
2019-02-02T08:25:55.543Z,5.40
2019-02-02T08:28:26.775Z,5.10
2019-02-02T08:30:57.745Z,5.10
2019-02-02T08:33:28.871Z,5.17
2019-02-02T08:36:00.050Z,5.10
2019-02-02T08:38:31.347Z,4.83
2019-02-02T08:41:02.416Z,5.60
2019-02-02T08:43:33.692Z,6.30
2019-02-02T08:46:04.719Z,5.77
2019-02-02T08:48:35.924Z,5.93
2019-02-02T08:51:09.374Z,6.07
2019-02-02T08:53:59.973Z,5.67
2019-02-02T08:56:49.559Z,6.00
2019-02-02T08:59:40.146Z,5.50
2019-02-02T09:02:30.657Z,6.13
2019-02-02T09:05:20.928Z,6.87
2019-02-02T09:08:10.477Z,7.40
2019-02-02T09:11:00.077Z,6.40
2019-02-02T09:13:32.059Z,6.83
2019-02-02T09:16:03.604Z,6.93
2019-02-02T09:18:35.222Z,6.60
2019-02-02T09:21:07.355Z,5.97
2019-02-02T09:23:39.375Z,5.90
2019-02-02T09:32:53.894Z,5.83
2019-02-02T09:35:25.377Z,6.00
2019-02-02T09:37:56.605Z,6.13
2019-02-02T09:40:28.120Z,6.03
2019-02-02T09:42:59.488Z,5.87
2019-02-02T09:45:30.832Z,5.80
2019-02-02T09:48:03.052Z,5.40
2019-02-02T09:50:34.195Z,5.73
2019-02-02T09:53:06.212Z,5.30
2019-02-02T09:55:37.630Z,5.77
2019-02-02T09:58:11.479Z,5.83
2019-02-02T10:00:46.195Z,6.87
2019-02-02T10:03:17.476Z,6.73
2019-02-02T10:05:48.701Z,6.20
2019-02-02T10:08:19.930Z,6.87
2019-02-02T10:10:50.996Z,6.13
2019-02-02T10:13:22.161Z,6.47
2019-02-02T10:15:53.503Z,6.57
2019-02-02T10:18:24.570Z,6.87
2019-02-02T10:21:03.641Z,7.03
2019-02-02T10:23:28.456Z,7.13
2019-02-02T10:25:59.809Z,8.43
2019-02-02T10:28:31.812Z,7.20
2019-02-02T10:31:02.963Z,6.73
2019-02-02T10:33:34.033Z,6.97
2019-02-02T10:36:05.587Z,6.97
2019-02-02T10:38:36.803Z,5.83
2019-02-02T10:41:07.860Z,6.23
2019-02-02T10:43:38.926Z,5.63
2019-02-02T10:46:10.943Z,6.33
2019-02-02T10:48:42.239Z,6.20
2019-02-02T10:51:13.651Z,5.83
2019-02-02T10:53:45.273Z,5.70
2019-02-02T10:56:16.334Z,8.60
2019-02-02T10:58:47.980Z,5.97
2019-02-02T11:01:19.178Z,6.50
2019-02-02T11:03:50.469Z,7.00
2019-02-02T11:06:21.814Z,6.07
2019-02-02T11:08:53.175Z,7.17
2019-02-02T11:11:24.396Z,6.30
2019-02-02T11:13:55.385Z,6.03
2019-02-02T11:16:26.531Z,8.47
2019-02-02T11:18:57.656Z,7.60
2019-02-02T11:21:29.170Z,8.57
2019-02-02T11:24:00.264Z,7.03
2019-02-02T11:26:31.657Z,7.07
2019-02-02T11:29:03.019Z,6.70
2019-02-02T11:31:34.103Z,7.33
2019-02-02T11:34:05.795Z,6.47
2019-02-02T11:36:36.912Z,7.90
2019-02-02T11:39:09.480Z,6.63
2019-02-02T11:41:40.927Z,7.70
2019-02-02T11:44:12.207Z,6.50
2019-02-02T11:46:43.560Z,6.93
2019-02-02T11:49:14.573Z,7.25
2019-02-02T11:51:45.846Z,7.57
2019-02-02T11:54:16.853Z,7.25
2019-02-02T11:56:47.971Z,6.27
2019-02-02T11:59:19.388Z,5.97
2019-02-02T12:01:50.530Z,6.27
2019-02-02T12:04:21.738Z,6.42
2019-02-02T12:06:52.843Z,7.60
2019-02-02T12:09:24.139Z,6.90
2019-02-02T12:11:56.237Z,7.10
2019-02-02T12:14:27.395Z,6.63
2019-02-02T12:16:58.758Z,6.47
2019-02-02T12:19:30.227Z,6.67
2019-02-02T12:22:01.296Z,6.67
2019-02-02T12:24:32.575Z,5.77
2019-02-02T12:27:03.578Z,6.53
2019-02-02T12:29:35.085Z,5.27
2019-02-02T12:32:06.601Z,8.43
2019-02-02T12:34:38.253Z,5.53
2019-02-02T12:37:09.313Z,5.30
2019-02-02T12:39:41.034Z,8.97
2019-02-02T12:42:12.100Z,11.57
2019-02-02T12:44:43.561Z,5.87
2019-02-02T12:47:14.645Z,6.73
2019-02-02T12:49:45.783Z,7.00
2019-02-02T12:52:17.050Z,5.13
2019-02-02T12:54:48.275Z,5.03
2019-02-02T12:57:19.393Z,5.00
2019-02-02T12:59:50.602Z,5.70
2019-02-02T13:02:25.435Z,5.27
2019-02-02T13:04:55.765Z,5.47
2019-02-02T13:07:26.818Z,6.83
2019-02-02T13:09:57.911Z,5.10
2019-02-02T13:12:29.151Z,5.30
2019-02-02T13:15:00.495Z,6.43
2019-02-02T13:17:32.811Z,5.87
2019-02-02T13:20:05.168Z,5.90
2019-02-02T13:22:36.473Z,6.20
2019-02-02T13:25:10.122Z,6.67
2019-02-02T13:27:41.165Z,6.37
2019-02-02T13:30:15.920Z,6.62
2019-02-02T13:32:49.799Z,7.23
2019-02-02T13:35:19.979Z,6.62
2019-02-02T13:37:51.142Z,8.73
2019-02-02T13:40:23.786Z,6.40
2019-02-02T14:50:37.004Z,18.90
2019-02-02T14:53:10.277Z,17.17
2019-02-02T14:55:41.671Z,16.57
2019-02-02T14:58:13.390Z,16.27
2019-02-02T15:00:44.410Z,17.30
2019-02-02T15:03:25.561Z,14.67
2019-02-02T15:05:48.939Z,14.40
2019-02-02T15:08:19.955Z,16.83
2019-02-02T15:10:50.999Z,11.40
2019-02-02T15:13:22.019Z,11.20
2019-02-02T15:15:53.063Z,13.23
2019-02-02T15:18:24.275Z,12.10
2019-02-02T15:20:55.382Z,10.30
2019-02-02T15:23:26.385Z,10.63
2019-02-02T15:25:57.625Z,9.87
2019-02-02T15:28:28.748Z,9.83
2019-02-02T15:30:59.817Z,9.60
2019-02-02T15:33:49.620Z,10.03
2019-02-02T15:36:20.763Z,10.70
2019-02-02T15:38:52.018Z,10.90
2019-02-02T15:41:23.518Z,11.10
2019-02-02T15:43:54.530Z,10.83
2019-02-02T15:46:25.562Z,11.23
2019-02-02T15:48:56.645Z,14.50
2019-02-02T15:51:39.779Z,22.07
2019-02-02T15:54:00.995Z,24.90
2019-02-02T15:56:32.217Z,25.57
2019-02-02T15:59:03.495Z,28.07
2019-02-02T16:01:34.604Z,25.93
2019-02-02T16:06:09.452Z,25.23
2019-02-02T16:08:40.566Z,23.20
2019-02-02T16:11:13.027Z,18.37
2019-02-02T16:13:44.962Z,11.40
2019-02-02T16:16:16.593Z,11.60
2019-02-02T16:18:48.827Z,12.47
2019-02-02T16:21:20.229Z,15.33
2019-02-02T16:23:51.766Z,16.87
2019-02-02T16:26:23.573Z,17.97
2019-02-02T16:28:54.897Z,24.93
2019-02-02T16:31:26.497Z,27.13
2019-02-02T16:34:02.112Z,29.60
2019-02-02T16:36:31.665Z,23.20
2019-02-02T16:39:06.134Z,25.07
2019-02-02T16:41:39.827Z,22.50
2019-02-02T16:44:12.404Z,25.43
2019-02-02T16:46:44.874Z,23.17
2019-02-02T16:49:16.055Z,20.43
2019-02-02T16:51:47.269Z,21.67
2019-02-02T16:54:18.402Z,15.72
2019-02-02T16:56:51.016Z,17.33
2019-02-02T16:59:22.703Z,19.65
2019-02-02T17:01:53.922Z,17.73
2019-02-02T17:04:24.952Z,16.27
2019-02-02T17:06:56.181Z,18.40
2019-02-02T17:09:27.521Z,19.33
2019-02-02T17:11:58.695Z,22.57
2019-02-02T17:14:29.893Z,26.33
2019-02-02T17:17:00.896Z,23.60
2019-02-02T17:19:31.984Z,26.30
2019-02-02T17:22:03.455Z,27.20
2019-02-02T17:24:35.387Z,29.93
2019-02-02T17:27:06.801Z,34.90
2019-02-02T17:29:37.991Z,32.50
2019-02-02T17:32:09.065Z,29.60
2019-02-02T17:34:40.809Z,26.47
2019-02-02T17:37:11.970Z,26.85
2019-02-02T17:39:43.783Z,23.10
2019-02-02T17:42:14.908Z,21.57
2019-02-02T17:44:50.412Z,20.13
2019-02-02T17:47:21.740Z,19.87
2019-02-02T17:49:52.865Z,19.80
2019-02-02T17:52:24.033Z,18.47
2019-02-02T17:54:55.118Z,21.47
2019-02-02T17:57:26.101Z,17.83
2019-02-02T17:59:57.287Z,16.80
2019-02-02T18:02:28.348Z,16.43
2019-02-02T18:04:59.423Z,13.40
2019-02-02T18:07:30.550Z,16.27
2019-02-02T18:10:01.668Z,15.57
2019-02-02T18:12:32.694Z,15.90
2019-02-02T18:15:04.754Z,15.33
2019-02-02T18:17:35.998Z,12.50
2019-02-02T18:20:09.068Z,15.00
2019-02-02T18:22:40.225Z,12.60
2019-02-02T18:25:12.617Z,12.85
2019-02-02T18:27:44.360Z,10.73
2019-02-02T18:30:18.370Z,11.65
2019-02-02T18:32:49.719Z,9.27
2019-02-02T18:35:21.268Z,8.18
2019-02-02T18:37:52.280Z,8.93
2019-02-02T18:40:23.552Z,7.70
2019-02-02T18:42:55.622Z,10.33
2019-02-02T18:45:27.175Z,8.07
2019-02-02T18:47:58.351Z,7.87
2019-02-02T18:50:29.575Z,7.00
2019-02-02T18:53:00.721Z,6.87
2019-02-02T18:55:35.129Z,7.80
2019-02-02T18:58:06.624Z,7.47
2019-02-02T19:00:38.772Z,7.33
2019-02-02T19:03:10.060Z,7.73
2019-02-02T19:05:41.321Z,8.33
2019-02-02T19:08:12.281Z,9.93
2019-02-02T19:10:44.047Z,8.20
2019-02-02T19:13:15.576Z,8.93
2019-02-02T19:15:46.919Z,9.33
2019-02-02T19:18:18.090Z,8.88
2019-02-02T19:20:49.245Z,9.60
2019-02-02T19:23:25.243Z,9.97
2019-02-02T19:25:53.333Z,10.07
2019-02-02T19:28:26.492Z,9.23
2019-02-02T19:30:57.330Z,9.77
2019-02-02T19:33:28.547Z,9.60
2019-02-02T19:35:59.625Z,8.67
2019-02-02T19:38:30.666Z,8.87
2019-02-02T19:41:01.916Z,8.97
2019-02-02T19:43:32.974Z,8.77
2019-02-02T19:46:04.253Z,9.30
2019-02-02T19:48:35.394Z,9.17
2019-02-02T19:51:06.443Z,10.30
2019-02-02T19:53:37.637Z,12.50
2019-02-02T19:56:08.587Z,10.90
2019-02-02T19:58:39.759Z,10.27
2019-02-02T20:01:10.808Z,8.88
2019-02-02T20:03:41.845Z,9.30
2019-02-02T20:06:13.042Z,8.88
2019-02-02T20:08:44.440Z,9.77
2019-02-02T20:11:15.558Z,8.00
2019-02-02T20:13:53.397Z,8.30
2019-02-02T20:16:24.529Z,9.13
2019-02-02T20:18:55.632Z,10.40
2019-02-02T20:21:26.719Z,10.00
2019-02-02T20:23:58.138Z,13.63
2019-02-02T20:26:29.285Z,15.70
2019-02-02T20:29:00.359Z,16.33
2019-02-02T20:31:31.575Z,15.60
2019-02-02T20:34:02.713Z,17.73
2019-02-02T20:36:33.789Z,14.33
2019-02-02T20:39:08.722Z,14.23
2019-02-02T20:41:39.960Z,16.13
2019-02-02T20:44:11.102Z,14.87
2019-02-02T20:46:42.555Z,19.13
2019-02-02T20:49:13.670Z,27.25
2019-02-02T20:51:44.838Z,27.07
2019-02-02T20:54:19.041Z,25.30
2019-02-02T20:56:49.051Z,19.80
2019-02-02T20:59:21.849Z,20.45
2019-02-02T21:01:53.031Z,17.87
2019-02-02T21:04:28.830Z,25.50
2019-02-02T21:07:00.398Z,33.27
2019-02-02T21:09:31.662Z,32.20
2019-02-02T21:12:02.952Z,29.47
2019-02-02T21:14:34.121Z,28.40
2019-02-02T21:17:05.745Z,23.90
2019-02-02T21:19:36.952Z,21.73
2019-02-02T21:22:07.936Z,21.33
2019-02-02T21:24:38.976Z,28.50
2019-02-02T21:27:10.009Z,25.03
2019-02-02T21:29:41.523Z,22.47
2019-02-02T21:32:12.554Z,24.37
2019-02-02T21:34:43.553Z,25.23
2019-02-02T21:37:14.715Z,27.53
2019-02-02T21:39:45.877Z,34.27
2019-02-02T21:42:17.150Z,45.03
2019-02-02T21:44:48.580Z,40.77
2019-02-02T21:47:19.657Z,49.42
2019-02-02T21:49:50.671Z,46.50
2019-02-02T21:52:21.741Z,57.95
2019-02-02T21:54:53.286Z,51.37
2019-02-02T21:57:24.293Z,43.00
2019-02-02T21:59:56.551Z,46.17
2019-02-02T22:02:27.559Z,71.72
2019-02-02T22:04:59.233Z,79.73
2019-02-02T22:07:30.309Z,73.67
2019-02-02T22:10:01.509Z,63.00
2019-02-02T22:12:32.894Z,65.57
2019-02-02T22:15:05.137Z,66.53
2019-02-02T22:17:36.200Z,73.57
2019-02-02T22:20:08.458Z,63.17
2019-02-02T22:22:39.658Z,70.10
2019-02-02T22:25:13.954Z,68.77
2019-02-02T22:27:46.233Z,72.00
2019-02-02T22:30:19.779Z,69.63
2019-02-02T22:32:50.860Z,69.37
2019-02-02T22:35:23.528Z,68.07
2019-02-02T22:37:56.287Z,65.90
2019-02-02T22:40:28.995Z,71.40
2019-02-02T22:43:02.214Z,56.43
2019-02-02T22:45:33.568Z,47.73
2019-02-02T22:48:06.590Z,40.30
2019-02-02T22:50:38.099Z,36.80
2019-02-02T22:53:09.551Z,37.57
2019-02-02T22:55:42.089Z,34.40
2019-02-02T22:58:14.664Z,33.08
2019-02-02T23:01:13.862Z,32.87
2019-02-02T23:04:04.926Z,35.67
2019-02-02T23:06:59.726Z,43.93
2019-02-02T23:09:58.567Z,51.00
2019-02-02T23:12:57.843Z,55.12
2019-02-02T23:15:55.799Z,66.73
2019-02-02T23:18:29.073Z,69.17
2019-02-02T23:21:00.608Z,65.60
2019-02-02T23:23:32.268Z,63.70
2019-02-02T23:26:03.578Z,61.70
2019-02-02T23:28:34.885Z,57.07
2019-02-02T23:31:06.369Z,55.87
2019-02-02T23:33:37.777Z,49.77
2019-02-02T23:36:09.074Z,50.63
2019-02-02T23:38:40.608Z,48.97
2019-02-02T23:41:12.024Z,44.37
2019-02-02T23:43:44.063Z,44.37
2019-02-02T23:46:16.159Z,44.47
2019-02-02T23:48:47.537Z,50.67
2019-02-02T23:51:18.892Z,40.85
2019-02-02T23:53:53.115Z,42.30
2019-02-02T23:56:24.753Z,37.37
2019-02-02T23:58:56.120Z,37.87
